Time;durP1;ratioP1;P1;durP2;ratioP2;P2;SDS_P1;SDS_P2;PMS_P1;PMS_P2;Temp;Humidity;BMP_temperature;BMP_pressure;BME280_temperature;BME280_humidity;BME280_pressure;Samples;Min_cycle;Max_cycle;Signal;HPM_P1;HPM_P2
2024/01/06 00:01:39;;;;;;;24.90;15.88;;;;;;;;;;5031556;28;20408;-83
2024/01/06 00:04:06;;;;;;;27.25;16.90;;;;;;;;;;5017173;28;20407;-83
2024/01/06 00:06:35;;;;;;;27.70;17.15;;;;;;;;;;5023079;28;20410;-83
2024/01/06 00:09:02;;;;;;;28.20;18.00;;;;;;;;;;5040304;28;20404;-84
2024/01/06 00:11:32;;;;;;;30.20;18.63;;;;;;;;;;5039161;28;20403;-84
2024/01/06 00:14:11;;;;;;;31.17;18.50;;;;;;;;;;5017361;28;20460;-82
2024/01/06 00:16:55;;;;;;;30.77;18.53;;;;;;;;;;5026843;28;20400;-83
2024/01/06 00:19:31;;;;;;;31.10;18.53;;;;;;;;;;5019178;28;20402;-81
2024/01/06 00:22:00;;;;;;;27.20;17.45;;;;;;;;;;5035315;28;20401;-83
2024/01/06 00:24:27;;;;;;;30.48;18.42;;;;;;;;;;5039151;28;20430;-83
2024/01/06 00:26:59;;;;;;;29.55;18.85;;;;;;;;;;5055225;28;20399;-82
2024/01/06 00:29:25;;;;;;;31.77;18.15;;;;;;;;;;5021956;28;20416;-81
2024/01/06 00:31:54;;;;;;;28.27;17.38;;;;;;;;;;5021438;28;20408;-81
2024/01/06 00:34:26;;;;;;;28.05;16.83;;;;;;;;;;5036069;28;20758;-82
2024/01/06 00:36:52;;;;;;;28.92;16.48;;;;;;;;;;5053768;28;20482;-81
2024/01/06 00:39:21;;;;;;;29.20;17.63;;;;;;;;;;5035829;28;20412;-83
2024/01/06 00:41:47;;;;;;;30.48;18.30;;;;;;;;;;5004307;28;20406;-83
2024/01/06 00:44:13;;;;;;;29.35;18.00;;;;;;;;;;5018838;28;20414;-83
2024/01/06 00:46:39;;;;;;;31.38;18.08;;;;;;;;;;5034244;28;20519;-82
2024/01/06 00:49:06;;;;;;;31.67;17.50;;;;;;;;;;5038525;28;20899;-82
2024/01/06 00:51:35;;;;;;;29.30;17.20;;;;;;;;;;5060233;28;20404;-81
2024/01/06 00:54:04;;;;;;;29.40;17.60;;;;;;;;;;5050600;28;20824;-81
2024/01/06 00:56:36;;;;;;;30.13;18.25;;;;;;;;;;5042171;28;20399;-82
2024/01/06 00:59:05;;;;;;;29.60;17.83;;;;;;;;;;5023079;28;20459;-83
2024/01/06 01:01:32;;;;;;;33.40;19.13;;;;;;;;;;5044696;28;20447;-83
2024/01/06 01:03:58;;;;;;;29.65;17.65;;;;;;;;;;5035196;28;20819;-83
2024/01/06 01:06:24;;;;;;;31.92;18.80;;;;;;;;;;5032384;28;20410;-83
2024/01/06 01:08:53;;;;;;;32.70;20.00;;;;;;;;;;4999702;28;20461;-83
2024/01/06 01:11:31;;;;;;;31.10;18.65;;;;;;;;;;5015896;28;20480;-82
2024/01/06 01:14:00;;;;;;;33.38;19.50;;;;;;;;;;5010062;28;20442;-83
2024/01/06 01:16:27;;;;;;;31.67;18.40;;;;;;;;;;5012901;28;20403;-82
2024/01/06 01:18:57;;;;;;;30.58;18.17;;;;;;;;;;4999314;28;20771;-81
2024/01/06 01:21:25;;;;;;;29.02;17.17;;;;;;;;;;5015514;28;20405;-81
2024/01/06 01:23:51;;;;;;;29.40;17.80;;;;;;;;;;5019287;28;20409;-81
2024/01/06 01:26:17;;;;;;;30.10;18.65;;;;;;;;;;5012500;28;20424;-81
2024/01/06 01:28:47;;;;;;;30.77;19.27;;;;;;;;;;5008527;28;20430;-82
2024/01/06 01:31:13;;;;;;;31.55;18.67;;;;;;;;;;5003298;28;20397;-83
2024/01/06 01:33:39;;;;;;;30.75;18.67;;;;;;;;;;5023688;28;20940;-83
2024/01/06 01:36:05;;;;;;;31.15;18.08;;;;;;;;;;5018399;28;20450;-81
2024/01/06 01:38:41;;;;;;;27.37;16.23;;;;;;;;;;5005981;28;20924;-81
2024/01/06 01:41:13;;;;;;;29.05;17.27;;;;;;;;;;5013255;28;20482;-81
2024/01/06 01:43:42;;;;;;;28.65;17.15;;;;;;;;;;5009256;28;20463;-81
2024/01/06 01:46:16;;;;;;;28.52;17.35;;;;;;;;;;4995249;28;20455;-81
2024/01/06 01:48:43;;;;;;;29.02;17.75;;;;;;;;;;5003138;28;20912;-81
2024/01/06 01:51:14;;;;;;;26.73;16.38;;;;;;;;;;4998705;28;20401;-81
2024/01/06 01:53:46;;;;;;;25.40;16.30;;;;;;;;;;5007001;28;20454;-81
2024/01/06 01:56:28;;;;;;;25.10;15.73;;;;;;;;;;4996531;28;20881;-81
2024/01/06 01:58:54;;;;;;;26.20;16.20;;;;;;;;;;5009734;28;20403;-81
2024/01/06 02:01:23;;;;;;;28.42;16.70;;;;;;;;;;5032486;28;20403;-84
2024/01/06 02:03:49;;;;;;;30.13;18.13;;;;;;;;;;5017761;28;20405;-84
2024/01/06 02:06:15;;;;;;;27.40;16.87;;;;;;;;;;5032019;28;20520;-83
2024/01/06 02:08:41;;;;;;;29.58;18.42;;;;;;;;;;5008414;28;20430;-84
2024/01/06 02:11:10;;;;;;;29.83;18.17;;;;;;;;;;5038180;28;20409;-84
2024/01/06 02:13:36;;;;;;;30.88;18.85;;;;;;;;;;5018846;28;20609;-85
2024/01/06 02:16:11;;;;;;;29.90;17.23;;;;;;;;;;5040563;28;20440;-84
2024/01/06 02:18:37;;;;;;;28.65;17.30;;;;;;;;;;5016992;28;20522;-83
2024/01/06 02:21:04;;;;;;;29.77;17.90;;;;;;;;;;5034679;28;20406;-83
2024/01/06 02:23:30;;;;;;;25.57;16.63;;;;;;;;;;5042900;28;20466;-84
2024/01/06 02:25:57;;;;;;;26.48;16.55;;;;;;;;;;5016345;28;20457;-81
2024/01/06 02:28:23;;;;;;;26.73;17.13;;;;;;;;;;5016321;28;20850;-80
2024/01/06 02:30:49;;;;;;;30.60;18.00;;;;;;;;;;5016129;28;20409;-81
2024/01/06 02:33:15;;;;;;;31.15;18.60;;;;;;;;;;5017462;28;20464;-80
2024/01/06 02:35:41;;;;;;;24.60;16.20;;;;;;;;;;5009489;28;20401;-81
2024/01/06 02:38:09;;;;;;;23.63;14.95;;;;;;;;;;5020634;28;20801;-81
2024/01/06 02:40:35;;;;;;;23.55;15.43;;;;;;;;;;5031468;28;20431;-81
2024/01/06 02:43:01;;;;;;;22.98;15.30;;;;;;;;;;5032444;28;20410;-81
2024/01/06 02:45:27;;;;;;;22.38;15.27;;;;;;;;;;5017303;28;20898;-81
2024/01/06 02:47:55;;;;;;;22.75;14.80;;;;;;;;;;5040946;28;20824;-81
2024/01/06 02:50:22;;;;;;;24.57;14.97;;;;;;;;;;5045765;28;20398;-80
2024/01/06 02:52:48;;;;;;;24.13;14.80;;;;;;;;;;5029103;28;20431;-80
2024/01/06 02:55:14;;;;;;;23.10;13.67;;;;;;;;;;5016473;28;20401;-81
2024/01/06 02:57:43;;;;;;;24.35;15.13;;;;;;;;;;5013206;28;20425;-80
2024/01/06 03:00:12;;;;;;;25.23;15.30;;;;;;;;;;4981585;28;20952;-82
2024/01/06 03:02:42;;;;;;;23.77;14.73;;;;;;;;;;5010908;28;20484;-82
2024/01/06 03:05:09;;;;;;;24.75;14.35;;;;;;;;;;5049464;28;20483;-83
2024/01/06 03:07:35;;;;;;;24.75;14.38;;;;;;;;;;5036978;28;20407;-83
2024/01/06 03:10:02;;;;;;;22.83;14.07;;;;;;;;;;5034200;28;20401;-82
2024/01/06 03:12:28;;;;;;;23.65;14.35;;;;;;;;;;5036859;28;20439;-81
2024/01/06 03:14:54;;;;;;;23.43;14.07;;;;;;;;;;5017531;28;20477;-81
2024/01/06 03:17:23;;;;;;;24.50;14.90;;;;;;;;;;5007745;28;20890;-82
2024/01/06 03:19:49;;;;;;;23.55;14.35;;;;;;;;;;5019448;28;20408;-83
2024/01/06 03:22:15;;;;;;;24.77;14.88;;;;;;;;;;5043302;28;20537;-82
2024/01/06 03:24:41;;;;;;;21.98;13.88;;;;;;;;;;5036755;28;20457;-84
2024/01/06 03:27:08;;;;;;;24.80;15.15;;;;;;;;;;5037211;28;20725;-83
2024/01/06 03:29:34;;;;;;;22.33;13.88;;;;;;;;;;5035580;28;20789;-83
2024/01/06 03:32:00;;;;;;;21.45;14.00;;;;;;;;;;5000932;28;20399;-84
2024/01/06 03:34:29;;;;;;;22.98;13.63;;;;;;;;;;5032105;28;20431;-84
2024/01/06 03:36:55;;;;;;;20.95;13.52;;;;;;;;;;5036353;28;20392;-84
2024/01/06 03:39:24;;;;;;;19.30;12.65;;;;;;;;;;5032216;28;20395;-84
2024/01/06 03:41:53;;;;;;;19.75;12.45;;;;;;;;;;5037069;28;20403;-81
2024/01/06 03:44:19;;;;;;;23.25;12.75;;;;;;;;;;5016454;28;20390;-82
2024/01/06 03:46:48;;;;;;;20.17;12.65;;;;;;;;;;5014467;28;20395;-81
2024/01/06 03:49:18;;;;;;;20.53;12.23;;;;;;;;;;5018949;28;20405;-81
2024/01/06 03:51:50;;;;;;;20.42;12.88;;;;;;;;;;5016488;28;20397;-81
2024/01/06 03:54:16;;;;;;;23.70;13.88;;;;;;;;;;5032310;28;20508;-81
2024/01/06 03:56:42;;;;;;;22.27;14.03;;;;;;;;;;5016620;28;20412;-81
2024/01/06 03:59:09;;;;;;;22.13;13.57;;;;;;;;;;5025173;28;20825;-83
2024/01/06 04:01:35;;;;;;;22.40;13.63;;;;;;;;;;5022778;28;20403;-82
2024/01/06 04:04:05;;;;;;;22.92;14.05;;;;;;;;;;5038399;28;20465;-83
2024/01/06 04:06:34;;;;;;;23.35;13.88;;;;;;;;;;5056681;28;20457;-83
2024/01/06 04:09:01;;;;;;;23.80;14.13;;;;;;;;;;5016913;28;20402;-83
2024/01/06 04:11:27;;;;;;;23.95;15.02;;;;;;;;;;5010198;28;20408;-83
2024/01/06 04:13:53;;;;;;;25.08;14.43;;;;;;;;;;5053381;28;20924;-81
2024/01/06 04:16:22;;;;;;;26.33;15.73;;;;;;;;;;5015311;28;21039;-82
2024/01/06 04:18:56;;;;;;;28.27;16.10;;;;;;;;;;5017814;28;20427;-81
2024/01/06 04:21:22;;;;;;;28.95;16.00;;;;;;;;;;5001345;28;20403;-81
2024/01/06 04:23:51;;;;;;;29.97;16.90;;;;;;;;;;5013845;28;20468;-81
2024/01/06 04:26:17;;;;;;;30.95;17.75;;;;;;;;;;5018685;28;20424;-81
2024/01/06 04:28:43;;;;;;;28.60;17.00;;;;;;;;;;5051400;28;20447;-83
2024/01/06 04:31:11;;;;;;;30.08;17.35;;;;;;;;;;5061000;28;20398;-83
2024/01/06 04:33:40;;;;;;;29.17;17.30;;;;;;;;;;5018267;28;20429;-83
2024/01/06 04:36:06;;;;;;;30.27;17.75;;;;;;;;;;5019608;28;20409;-81
2024/01/06 04:38:32;;;;;;;29.05;16.83;;;;;;;;;;5027055;28;20427;-85
2024/01/06 04:40:58;;;;;;;28.08;16.38;;;;;;;;;;5004441;28;20796;-84
2024/01/06 04:43:24;;;;;;;29.50;16.80;;;;;;;;;;5039134;28;20405;-82
2024/01/06 04:45:57;;;;;;;27.88;16.48;;;;;;;;;;5053503;28;20890;-82
2024/01/06 04:48:24;;;;;;;26.27;15.30;;;;;;;;;;5042247;28;20465;-82
2024/01/06 04:50:50;;;;;;;25.33;15.98;;;;;;;;;;5048730;28;20433;-82
2024/01/06 04:53:16;;;;;;;25.67;15.55;;;;;;;;;;5032011;28;20418;-84
2024/01/06 04:55:42;;;;;;;26.40;15.70;;;;;;;;;;5017779;28;20451;-84
2024/01/06 04:58:08;;;;;;;24.30;15.47;;;;;;;;;;5017791;28;22147;-82
2024/01/06 05:00:36;;;;;;;24.17;14.52;;;;;;;;;;5019263;28;20405;-81
2024/01/06 05:03:02;;;;;;;23.85;14.60;;;;;;;;;;5011526;28;20416;-83
2024/01/06 05:05:28;;;;;;;25.15;14.27;;;;;;;;;;5035165;28;20488;-81
2024/01/06 05:07:54;;;;;;;23.95;15.32;;;;;;;;;;5030360;28;20413;-81
2024/01/06 05:10:20;;;;;;;25.90;15.25;;;;;;;;;;5045103;28;20393;-81
2024/01/06 05:12:49;;;;;;;24.55;14.70;;;;;;;;;;5019274;28;20429;-81
2024/01/06 05:15:18;;;;;;;25.67;15.02;;;;;;;;;;5033162;28;20423;-83
2024/01/06 05:17:47;;;;;;;27.45;16.70;;;;;;;;;;5048640;28;20403;-83
2024/01/06 05:20:13;;;;;;;26.42;16.05;;;;;;;;;;5018448;28;20437;-83
2024/01/06 05:22:39;;;;;;;23.55;14.70;;;;;;;;;;5015202;28;20408;-83
2024/01/06 05:25:05;;;;;;;24.10;15.13;;;;;;;;;;5051946;28;20397;-83
2024/01/06 05:27:31;;;;;;;24.27;15.07;;;;;;;;;;5030998;28;20883;-82
2024/01/06 05:30:00;;;;;;;24.63;15.13;;;;;;;;;;5055256;28;20392;-84
2024/01/06 05:32:26;;;;;;;24.90;15.13;;;;;;;;;;5021287;28;20413;-84
2024/01/06 05:34:52;;;;;;;23.05;14.48;;;;;;;;;;5018205;28;20409;-83
2024/01/06 05:37:18;;;;;;;23.55;14.32;;;;;;;;;;5035092;28;20413;-84
2024/01/06 05:39:44;;;;;;;24.15;14.77;;;;;;;;;;5017799;28;20484;-84
2024/01/06 05:42:16;;;;;;;22.02;14.80;;;;;;;;;;5019555;28;20951;-83
2024/01/06 05:44:42;;;;;;;25.98;14.88;;;;;;;;;;5027900;28;20413;-81
2024/01/06 05:47:08;;;;;;;22.02;13.98;;;;;;;;;;5027176;28;20908;-84
2024/01/06 05:49:34;;;;;;;24.48;15.15;;;;;;;;;;5021074;28;20407;-80
2024/01/06 05:52:01;;;;;;;24.05;15.55;;;;;;;;;;5035947;28;20404;-80
2024/01/06 05:54:27;;;;;;;22.42;14.30;;;;;;;;;;5021305;28;20524;-83
2024/01/06 05:56:53;;;;;;;22.10;14.73;;;;;;;;;;5037011;28;20814;-83
2024/01/06 05:59:19;;;;;;;23.98;14.50;;;;;;;;;;5018337;28;20485;-84
2024/01/06 06:01:45;;;;;;;23.47;14.50;;;;;;;;;;5034093;28;20462;-85
2024/01/06 06:04:12;;;;;;;24.10;14.50;;;;;;;;;;5029469;28;20407;-84
2024/01/06 06:06:38;;;;;;;20.60;13.65;;;;;;;;;;5044758;28;20425;-84
2024/01/06 06:09:21;;;;;;;19.92;13.40;;;;;;;;;;5034552;28;20420;-82
2024/01/06 06:11:48;;;;;;;22.20;14.20;;;;;;;;;;5017466;28;20405;-82
2024/01/06 06:14:14;;;;;;;23.05;13.57;;;;;;;;;;5033540;28;20457;-82
2024/01/06 06:16:40;;;;;;;20.03;13.00;;;;;;;;;;5016704;28;20712;-82
2024/01/06 06:19:07;;;;;;;23.25;13.23;;;;;;;;;;5012261;28;20397;-81
2024/01/06 06:21:34;;;;;;;19.38;12.95;;;;;;;;;;5037933;28;20436;-82
2024/01/06 06:24:00;;;;;;;19.88;13.10;;;;;;;;;;5017806;28;20629;-82
2024/01/06 06:26:26;;;;;;;19.05;13.13;;;;;;;;;;5019059;28;20400;-82
2024/01/06 06:28:55;;;;;;;20.52;13.00;;;;;;;;;;5006911;28;20433;-82
2024/01/06 06:31:21;;;;;;;18.85;12.70;;;;;;;;;;5011117;28;20433;-82
2024/01/06 06:33:47;;;;;;;19.85;12.70;;;;;;;;;;5047905;28;20425;-82
2024/01/06 06:36:13;;;;;;;18.85;12.98;;;;;;;;;;5017336;28;20398;-84
2024/01/06 06:38:39;;;;;;;20.35;13.95;;;;;;;;;;5022175;28;20403;-82
2024/01/06 06:41:05;;;;;;;20.87;13.17;;;;;;;;;;5017447;28;20907;-82
2024/01/06 06:43:31;;;;;;;21.45;13.40;;;;;;;;;;5010906;28;20422;-82
2024/01/06 06:45:57;;;;;;;20.80;13.43;;;;;;;;;;5049726;28;20492;-82
2024/01/06 06:48:24;;;;;;;21.30;13.65;;;;;;;;;;4990381;28;20501;-82
2024/01/06 06:50:52;;;;;;;21.83;13.93;;;;;;;;;;5026440;28;20399;-82
2024/01/06 06:53:18;;;;;;;22.50;14.38;;;;;;;;;;5042968;28;20932;-84
2024/01/06 06:55:44;;;;;;;21.50;14.02;;;;;;;;;;5015273;28;20457;-85
2024/01/06 06:58:10;;;;;;;21.65;14.25;;;;;;;;;;5044845;28;20477;-82
2024/01/06 07:00:37;;;;;;;24.05;14.45;;;;;;;;;;5010212;28;20917;-83
2024/01/06 07:03:04;;;;;;;21.25;14.05;;;;;;;;;;5004856;28;20412;-82
2024/01/06 07:05:30;;;;;;;23.05;14.98;;;;;;;;;;5035549;28;20414;-82
2024/01/06 07:07:56;;;;;;;23.30;14.95;;;;;;;;;;5050634;28;20394;-82
2024/01/06 07:10:25;;;;;;;21.45;14.30;;;;;;;;;;5033463;28;20766;-84
2024/01/06 07:12:53;;;;;;;22.40;13.98;;;;;;;;;;5028827;28;20486;-84
2024/01/06 07:15:19;;;;;;;22.92;14.48;;;;;;;;;;5030950;28;20500;-83
2024/01/06 07:17:45;;;;;;;24.80;15.35;;;;;;;;;;5043597;28;20409;-83
2024/01/06 07:20:21;;;;;;;22.80;14.37;;;;;;;;;;5035023;28;20476;-82
2024/01/06 07:22:50;;;;;;;23.05;15.32;;;;;;;;;;5045439;28;20411;-83
2024/01/06 07:25:31;;;;;;;24.48;15.43;;;;;;;;;;4998533;28;20407;-82
2024/01/06 07:28:08;;;;;;;24.60;15.60;;;;;;;;;;5022535;28;20419;-81
2024/01/06 07:30:37;;;;;;;25.65;15.88;;;;;;;;;;5028831;28;20476;-82
2024/01/06 07:33:12;;;;;;;26.67;15.73;;;;;;;;;;5024447;28;20780;-82
2024/01/06 07:35:43;;;;;;;25.30;16.38;;;;;;;;;;5049706;28;20402;-81
2024/01/06 07:38:16;;;;;;;24.97;16.37;;;;;;;;;;5019434;28;20393;-81
2024/01/06 07:40:44;;;;;;;25.95;15.85;;;;;;;;;;5034025;28;20455;-81
2024/01/06 07:43:15;;;;;;;25.48;16.05;;;;;;;;;;5003016;28;20814;-81
2024/01/06 07:45:44;;;;;;;29.52;17.67;;;;;;;;;;5012719;28;20519;-85
2024/01/06 07:48:15;;;;;;;28.20;17.33;;;;;;;;;;5035897;28;20491;-82
2024/01/06 07:50:46;;;;;;;28.95;17.45;;;;;;;;;;5019905;28;20401;-82
2024/01/06 07:53:13;;;;;;;26.90;17.38;;;;;;;;;;5032925;28;20441;-82
2024/01/06 07:55:45;;;;;;;30.60;17.20;;;;;;;;;;5018678;28;20482;-83
2024/01/06 07:58:13;;;;;;;28.80;17.85;;;;;;;;;;5045327;28;20485;-83
2024/01/06 08:00:45;;;;;;;29.25;18.00;;;;;;;;;;5036164;28;20417;-83
2024/01/06 08:03:11;;;;;;;31.88;18.10;;;;;;;;;;5037296;28;20409;-82
2024/01/06 08:05:37;;;;;;;32.15;18.35;;;;;;;;;;5046875;28;20417;-83
2024/01/06 08:08:04;;;;;;;28.50;17.58;;;;;;;;;;5019479;28;20415;-84
2024/01/06 08:10:31;;;;;;;33.08;19.08;;;;;;;;;;5030104;28;20744;-84
2024/01/06 08:12:57;;;;;;;28.65;18.20;;;;;;;;;;5032632;28;20438;-85
2024/01/06 08:15:35;;;;;;;29.13;18.30;;;;;;;;;;5014067;28;20900;-84
2024/01/06 08:18:01;;;;;;;29.00;18.13;;;;;;;;;;5017038;28;20416;-83
2024/01/06 08:20:27;;;;;;;29.88;18.67;;;;;;;;;;5020124;28;20509;-83
2024/01/06 08:22:53;;;;;;;31.75;19.27;;;;;;;;;;5031134;28;20403;-84
2024/01/06 08:25:22;;;;;;;29.25;19.17;;;;;;;;;;5031182;28;20404;-83
2024/01/06 08:27:48;;;;;;;33.03;18.65;;;;;;;;;;5031038;28;20416;-84
2024/01/06 08:30:14;;;;;;;29.52;18.48;;;;;;;;;;5016963;28;20484;-84
2024/01/06 08:32:40;;;;;;;28.60;18.87;;;;;;;;;;5024120;28;20425;-84
2024/01/06 08:35:07;;;;;;;29.10;17.80;;;;;;;;;;5020325;28;20437;-84
2024/01/06 08:37:33;;;;;;;26.27;17.95;;;;;;;;;;5037135;28;20406;-84
2024/01/06 08:39:59;;;;;;;28.23;18.58;;;;;;;;;;5031325;28;20407;-86
2024/01/06 08:42:25;;;;;;;27.38;18.70;;;;;;;;;;5015903;28;21638;-82
2024/01/06 08:44:52;;;;;;;29.83;18.25;;;;;;;;;;5051088;28;20421;-84
2024/01/06 08:47:18;;;;;;;32.05;18.85;;;;;;;;;;5035484;28;20405;-82
2024/01/06 08:49:44;;;;;;;29.27;18.33;;;;;;;;;;5018020;28;20413;-83
2024/01/06 08:52:10;;;;;;;27.08;18.10;;;;;;;;;;5028556;28;20427;-83
2024/01/06 08:54:36;;;;;;;28.52;18.35;;;;;;;;;;5008286;28;20419;-83
2024/01/06 08:57:02;;;;;;;28.60;17.98;;;;;;;;;;5013292;28;20911;-83
2024/01/06 08:59:29;;;;;;;28.63;18.85;;;;;;;;;;5030341;28;20478;-83
2024/01/06 09:01:56;;;;;;;26.88;17.88;;;;;;;;;;5023108;28;20408;-83
2024/01/06 09:04:22;;;;;;;27.13;17.15;;;;;;;;;;5014973;28;20487;-83
2024/01/06 09:06:50;;;;;;;24.48;16.35;;;;;;;;;;5016835;28;20412;-83
2024/01/06 09:09:16;;;;;;;24.73;16.73;;;;;;;;;;5006446;28;20413;-84
2024/01/06 09:11:44;;;;;;;23.27;15.77;;;;;;;;;;5034373;28;20408;-83
2024/01/06 09:14:12;;;;;;;23.58;16.10;;;;;;;;;;5016641;28;20439;-82
2024/01/06 09:16:39;;;;;;;23.67;16.85;;;;;;;;;;5034132;28;20407;-84
2024/01/06 09:19:05;;;;;;;26.73;17.70;;;;;;;;;;5031378;28;20715;-84
2024/01/06 09:21:31;;;;;;;25.58;17.08;;;;;;;;;;5018649;28;20401;-83
2024/01/06 09:23:57;;;;;;;27.38;17.27;;;;;;;;;;5038008;28;20416;-84
2024/01/06 09:26:23;;;;;;;25.90;16.43;;;;;;;;;;5020566;28;20408;-83
2024/01/06 09:28:49;;;;;;;24.83;16.27;;;;;;;;;;5023066;28;20430;-84
2024/01/06 09:31:16;;;;;;;27.30;15.40;;;;;;;;;;5021037;28;20516;-84
2024/01/06 09:33:42;;;;;;;23.00;15.82;;;;;;;;;;5010201;28;20905;-84
2024/01/06 09:36:13;;;;;;;25.98;16.98;;;;;;;;;;5023116;28;20914;-82
2024/01/06 09:38:39;;;;;;;22.92;15.60;;;;;;;;;;5031594;28;20400;-82
2024/01/06 09:41:05;;;;;;;24.10;16.42;;;;;;;;;;5025385;28;20484;-81
2024/01/06 09:43:32;;;;;;;24.23;15.60;;;;;;;;;;5015117;28;20981;-83
2024/01/06 09:46:06;;;;;;;26.37;16.30;;;;;;;;;;5045719;28;20568;-84
2024/01/06 09:48:35;;;;;;;23.35;15.65;;;;;;;;;;5051906;28;20414;-83
2024/01/06 09:51:06;;;;;;;20.53;14.40;;;;;;;;;;5027990;28;20396;-83
2024/01/06 09:53:41;;;;;;;23.27;15.45;;;;;;;;;;5024239;28;20483;-83
2024/01/06 09:56:17;;;;;;;23.33;15.10;;;;;;;;;;5018049;28;20410;-83
2024/01/06 09:58:47;;;;;;;25.20;16.13;;;;;;;;;;5026129;28;20413;-83
2024/01/06 10:01:14;;;;;;;23.00;15.35;;;;;;;;;;5031179;28;20737;-84
2024/01/06 10:03:41;;;;;;;25.17;15.60;;;;;;;;;;5021729;28;20409;-83
2024/01/06 10:06:09;;;;;;;22.80;14.75;;;;;;;;;;5040107;28;20405;-82
2024/01/06 10:08:35;;;;;;;22.40;15.55;;;;;;;;;;5017029;28;20758;-83
2024/01/06 10:11:02;;;;;;;21.60;14.55;;;;;;;;;;5035329;28;20920;-84
2024/01/06 10:13:28;;;;;;;19.33;13.38;;;;;;;;;;5022459;28;20433;-85
2024/01/06 10:15:55;;;;;;;21.90;14.23;;;;;;;;;;5045323;28;20396;-86
2024/01/06 10:18:25;;;;;;;22.05;13.70;;;;;;;;;;5018697;28;20786;-85
2024/01/06 10:20:51;;;;;;;20.50;13.38;;;;;;;;;;5046355;28;20749;-86
2024/01/06 10:23:18;;;;;;;20.58;14.00;;;;;;;;;;5034289;28;20444;-85
2024/01/06 10:25:44;;;;;;;21.13;14.30;;;;;;;;;;5017158;28;20412;-85
2024/01/06 10:28:16;;;;;;;20.17;14.18;;;;;;;;;;5013838;28;20403;-86
2024/01/06 10:30:43;;;;;;;20.27;13.43;;;;;;;;;;5007103;28;20436;-85
2024/01/06 10:33:10;;;;;;;20.08;14.13;;;;;;;;;;5032919;28;20448;-84
2024/01/06 10:35:39;;;;;;;19.30;13.68;;;;;;;;;;5037836;28;20439;-83
2024/01/06 10:38:29;;;;;;;19.70;13.70;;;;;;;;;;5041491;28;20392;-83
2024/01/06 10:40:59;;;;;;;19.88;13.55;;;;;;;;;;5024048;28;20438;-83
2024/01/06 10:43:35;;;;;;;19.20;13.45;;;;;;;;;;5030286;28;20444;-83
2024/01/06 10:46:04;;;;;;;20.10;13.10;;;;;;;;;;5018383;28;20405;-83
2024/01/06 10:48:34;;;;;;;18.55;12.90;;;;;;;;;;5032182;28;20405;-83
2024/01/06 10:51:02;;;;;;;19.13;13.10;;;;;;;;;;5024479;28;20537;-83
2024/01/06 10:53:30;;;;;;;19.77;12.30;;;;;;;;;;5016226;28;20421;-84
2024/01/06 10:55:58;;;;;;;18.05;12.57;;;;;;;;;;5033347;28;20406;-83
2024/01/06 10:58:24;;;;;;;19.05;13.07;;;;;;;;;;5030820;28;20775;-83
2024/01/06 11:00:51;;;;;;;17.65;12.38;;;;;;;;;;5019310;28;20486;-83
2024/01/06 11:03:18;;;;;;;19.27;13.32;;;;;;;;;;5049046;28;20420;-83
2024/01/06 11:05:44;;;;;;;19.07;13.20;;;;;;;;;;4997318;28;20492;-83
2024/01/06 11:08:11;;;;;;;17.65;11.98;;;;;;;;;;4995114;28;20469;-82
2024/01/06 11:10:38;;;;;;;18.67;13.85;;;;;;;;;;5020507;28;20417;-82
2024/01/06 11:13:14;;;;;;;20.95;14.80;;;;;;;;;;5034103;28;20433;-84
2024/01/06 11:15:42;;;;;;;20.52;13.73;;;;;;;;;;5050307;28;20800;-83
2024/01/06 11:18:08;;;;;;;19.67;13.70;;;;;;;;;;5013334;28;20466;-83
2024/01/06 11:20:34;;;;;;;18.35;13.98;;;;;;;;;;5042351;28;20454;-83
2024/01/06 11:23:22;;;;;;;21.58;15.05;;;;;;;;;;5022762;28;20452;-84
2024/01/06 11:25:48;;;;;;;21.35;15.75;;;;;;;;;;5021030;28;20469;-82
2024/01/06 11:28:17;;;;;;;21.20;16.00;;;;;;;;;;5021270;28;20417;-84
2024/01/06 11:30:43;;;;;;;22.50;15.73;;;;;;;;;;5033826;28;20759;-84
2024/01/06 11:33:10;;;;;;;22.70;16.30;;;;;;;;;;5018492;28;20425;-82
2024/01/06 11:35:39;;;;;;;25.30;17.77;;;;;;;;;;5038725;28;20409;-83
2024/01/06 11:38:07;;;;;;;25.25;18.95;;;;;;;;;;5036354;28;20816;-83
2024/01/06 11:40:34;;;;;;;24.60;17.08;;;;;;;;;;5035668;28;20437;-83
2024/01/06 11:43:00;;;;;;;23.55;15.77;;;;;;;;;;5020395;28;20427;-83
2024/01/06 11:45:26;;;;;;;21.65;16.20;;;;;;;;;;5039323;28;20393;-83
2024/01/06 11:47:59;;;;;;;24.27;16.45;;;;;;;;;;5036184;28;20408;-83
2024/01/06 11:50:26;;;;;;;26.90;19.58;;;;;;;;;;5034727;28;20434;-84
2024/01/06 11:52:53;;;;;;;23.52;16.50;;;;;;;;;;5017308;28;20555;-82
2024/01/06 11:55:19;;;;;;;22.23;15.18;;;;;;;;;;5043715;28;20405;-84
2024/01/06 11:57:47;;;;;;;21.97;14.63;;;;;;;;;;5049414;28;20824;-84
2024/01/06 12:00:16;;;;;;;20.65;13.85;;;;;;;;;;5053525;28;20421;-82
2024/01/06 12:02:42;;;;;;;18.33;12.45;;;;;;;;;;5034587;28;20416;-83
2024/01/06 12:05:18;;;;;;;18.23;12.93;;;;;;;;;;5022725;28;20430;-83
2024/01/06 12:07:54;;;;;;;17.08;12.55;;;;;;;;;;5030689;28;20393;-82
2024/01/06 12:10:21;;;;;;;18.38;13.32;;;;;;;;;;5032612;28;20428;-82
2024/01/06 12:13:01;;;;;;;15.68;11.48;;;;;;;;;;5045018;28;20423;-83
2024/01/06 12:15:27;;;;;;;17.23;11.68;;;;;;;;;;5020018;28;20406;-83
2024/01/06 12:17:53;;;;;;;16.08;11.98;;;;;;;;;;5036138;28;20401;-84
2024/01/06 12:20:20;;;;;;;16.05;11.10;;;;;;;;;;5034197;28;20428;-82
2024/01/06 12:22:46;;;;;;;15.50;11.18;;;;;;;;;;5019248;28;20409;-82
2024/01/06 12:25:15;;;;;;;17.27;11.73;;;;;;;;;;5035039;28;20488;-82
2024/01/06 12:27:47;;;;;;;14.63;11.20;;;;;;;;;;5019264;28;20405;-81
2024/01/06 12:30:18;;;;;;;15.47;10.90;;;;;;;;;;5004400;28;20423;-80
2024/01/06 12:32:45;;;;;;;15.75;10.73;;;;;;;;;;5030514;28;20788;-80
2024/01/06 12:35:11;;;;;;;14.93;10.93;;;;;;;;;;5033300;28;20761;-81
2024/01/06 12:37:38;;;;;;;13.23;10.20;;;;;;;;;;5036538;28;20495;-81
2024/01/06 12:40:04;;;;;;;14.35;10.43;;;;;;;;;;5036990;28;20905;-80
2024/01/06 12:42:30;;;;;;;14.00;10.13;;;;;;;;;;5014902;28;20407;-80
2024/01/06 12:44:56;;;;;;;12.98;9.55;;;;;;;;;;5016417;28;20410;-84
2024/01/06 12:47:24;;;;;;;14.00;10.38;;;;;;;;;;5016921;28;20435;-84
2024/01/06 12:49:50;;;;;;;13.85;9.73;;;;;;;;;;5030017;28;20403;-83
2024/01/06 12:52:24;;;;;;;14.45;10.40;;;;;;;;;;5037137;28;20401;-84
2024/01/06 12:54:53;;;;;;;15.15;11.10;;;;;;;;;;5016892;28;20432;-83
2024/01/06 12:57:22;;;;;;;14.30;9.88;;;;;;;;;;5018004;28;20425;-85
2024/01/06 12:59:48;;;;;;;13.07;9.93;;;;;;;;;;5018853;28;20401;-85
2024/01/06 13:02:20;;;;;;;11.98;9.10;;;;;;;;;;5030616;28;20403;-85
2024/01/06 13:04:47;;;;;;;13.10;9.77;;;;;;;;;;5033877;28;20447;-85
2024/01/06 13:07:13;;;;;;;12.68;8.18;;;;;;;;;;4999563;28;20399;-82
2024/01/06 13:09:42;;;;;;;12.90;9.23;;;;;;;;;;5052221;28;20469;-81
2024/01/06 13:12:18;;;;;;;12.18;8.70;;;;;;;;;;5050122;28;20401;-83
2024/01/06 13:14:50;;;;;;;12.82;9.07;;;;;;;;;;5045022;28;20459;-80
2024/01/06 13:17:23;;;;;;;12.52;9.55;;;;;;;;;;5047804;28;20401;-82
2024/01/06 13:20:19;;;;;;;12.65;8.45;;;;;;;;;;5019263;28;20410;-82
2024/01/06 13:22:51;;;;;;;13.57;10.00;;;;;;;;;;5031846;28;20742;-83
2024/01/06 13:25:21;;;;;;;13.65;9.68;;;;;;;;;;5037065;28;20417;-82
2024/01/06 13:27:54;;;;;;;12.82;9.45;;;;;;;;;;4999124;28;20409;-83
2024/01/06 13:30:23;;;;;;;13.30;9.40;;;;;;;;;;5013899;28;20758;-82
2024/01/06 13:33:15;;;;;;;13.27;8.85;;;;;;;;;;4989294;28;20850;-83
2024/01/06 13:35:57;;;;;;;12.48;8.73;;;;;;;;;;5007855;28;20939;-84
2024/01/06 13:38:25;;;;;;;12.30;8.37;;;;;;;;;;4970169;28;20424;-84
2024/01/06 13:41:03;;;;;;;14.50;9.35;;;;;;;;;;4965527;28;20408;-84
2024/01/06 13:43:29;;;;;;;12.95;9.68;;;;;;;;;;4992030;28;21003;-84
2024/01/06 13:45:55;;;;;;;14.35;9.75;;;;;;;;;;5007483;28;20438;-84
2024/01/06 13:48:22;;;;;;;13.50;9.57;;;;;;;;;;5013964;28;20561;-83
2024/01/06 13:50:48;;;;;;;13.37;9.83;;;;;;;;;;4989390;28;20531;-83
2024/01/06 13:53:23;;;;;;;14.98;9.88;;;;;;;;;;4976098;28;20423;-84
2024/01/06 13:55:49;;;;;;;13.23;9.50;;;;;;;;;;4989628;28;20427;-84
2024/01/06 13:58:19;;;;;;;14.88;9.65;;;;;;;;;;5002997;28;20424;-83
2024/01/06 14:00:51;;;;;;;13.32;9.50;;;;;;;;;;5029964;28;20828;-82
2024/01/06 14:03:17;;;;;;;12.63;9.02;;;;;;;;;;5036527;28;20407;-82
2024/01/06 14:05:43;;;;;;;13.23;9.57;;;;;;;;;;5017016;28;20416;-83
2024/01/06 14:08:09;;;;;;;15.10;10.52;;;;;;;;;;5043937;28;20433;-84
2024/01/06 14:10:37;;;;;;;13.07;9.53;;;;;;;;;;5042222;28;20433;-84
2024/01/06 14:13:04;;;;;;;14.30;9.88;;;;;;;;;;5037314;28;20478;-84
2024/01/06 14:15:32;;;;;;;14.40;10.00;;;;;;;;;;5022584;28;20509;-83
2024/01/06 14:17:59;;;;;;;14.27;10.20;;;;;;;;;;5032749;28;20919;-83
2024/01/06 14:20:25;;;;;;;13.23;9.40;;;;;;;;;;5053908;28;20471;-83
2024/01/06 14:22:54;;;;;;;12.93;9.10;;;;;;;;;;5033173;28;20411;-83
2024/01/06 14:25:29;;;;;;;12.38;9.15;;;;;;;;;;5017426;28;20416;-83